RJSI(METAR)
04/24 16:00
METAR RJSI 240700Z 17016KT 9999 FEW030 SCT040 BKN100 21/14 Q1010 RMK
1CU030 4SC040 6AC100 A2985=
戻る
トップページへ戻る
IMOC Co,.Ltd.